PDA6002 UKBB-LGSK
Flight info
| Callsign | PDA6002 |
|---|---|
| Flight time | 1h 48m |
| Altitude | 36000 |
| Route | BASO1Z BASOR M856 SULUM N145 LAVDA N181 NUNTA/N0441F360 DCT UPAMA DCT NIKTI/N0444F370 UY505 PEREN EVIK1C SKP W58 EVIKO EVIK1C |
| Aircraft | A321/M-SDE3FGHIJ4RWY/LB1 |
Departure
| Time | 2026-05-04 13:16 |
|---|---|
| Airport | Boryspil International Airport (UKBB) |
Arrival
| Time | 2026-05-04 15:04 |
|---|---|
| Airport | Skiathos Island National Airport (LGSK) |
| Time | Latitude | Longitude | Altitude | Speed | Heading |
|---|---|---|---|---|---|
| 2026-05-04 12:46 | 50.33565 | 30.89793 | 409 ft | 0 kts | 3° |
| 2026-05-04 12:47 | 50.33569 | 30.89794 | 408 ft | 0 kts | 3° |
| 2026-05-04 13:10 | 50.33574 | 30.89794 | 415 ft | 3 kts | 3° |
| 2026-05-04 13:11 | 50.33597 | 30.89803 | 415 ft | 3 kts | 37° |
| 2026-05-04 13:11 | 50.33604 | 30.89870 | 414 ft | 11 kts | 90° |
| 2026-05-04 13:11 | 50.33601 | 30.89992 | 415 ft | 11 kts | 92° |
| 2026-05-04 13:11 | 50.33618 | 30.90138 | 405 ft | 12 kts | 38° |
| 2026-05-04 13:12 | 50.33672 | 30.90148 | 409 ft | 9 kts | 4° |
| 2026-05-04 13:12 | 50.33807 | 30.90158 | 408 ft | 27 kts | 3° |
| 2026-05-04 13:12 | 50.34005 | 30.90173 | 410 ft | 29 kts | 3° |
| 2026-05-04 13:12 | 50.34214 | 30.90188 | 415 ft | 35 kts | 2° |
| 2026-05-04 13:13 | 50.34478 | 30.90207 | 413 ft | 39 kts | 2° |
| 2026-05-04 13:13 | 50.34743 | 30.90227 | 411 ft | 38 kts | 3° |
| 2026-05-04 13:13 | 50.35004 | 30.90246 | 411 ft | 37 kts | 2° |
| 2026-05-04 13:13 | 50.35258 | 30.90264 | 415 ft | 36 kts | 2° |
| 2026-05-04 13:14 | 50.35503 | 30.90282 | 415 ft | 36 kts | 2° |
| 2026-05-04 13:14 | 50.35740 | 30.90300 | 413 ft | 32 kts | 3° |
| 2026-05-04 13:14 | 50.35943 | 30.90314 | 414 ft | 28 kts | 2° |
| 2026-05-04 13:14 | 50.36063 | 30.90371 | 414 ft | 16 kts | 46° |
| 2026-05-04 13:15 | 50.36081 | 30.90524 | 412 ft | 14 kts | 112° |
| 2026-05-04 13:15 | 50.36021 | 30.90616 | 415 ft | 12 kts | 151° |
| 2026-05-04 13:15 | 50.35943 | 30.90638 | 411 ft | 14 kts | 181° |
| 2026-05-04 13:15 | 50.35653 | 30.90617 | 410 ft | 76 kts | 182° |
| 2026-05-04 13:16 | 50.34920 | 30.90564 | 416 ft | 131 kts | 182° |
| 2026-05-04 13:16 | 50.33857 | 30.90488 | 477 ft | 168 kts | 182° |
| 2026-05-04 13:16 | 50.32687 | 30.90397 | 1076 ft | 171 kts | 183° |
| 2026-05-04 13:16 | 50.31476 | 30.90297 | 1625 ft | 178 kts | 183° |
| 2026-05-04 13:17 | 50.30221 | 30.90178 | 2167 ft | 185 kts | 186° |
| 2026-05-04 13:17 | 50.28881 | 30.89881 | 2405 ft | 205 kts | 189° |
| 2026-05-04 13:17 | 50.27401 | 30.89472 | 2655 ft | 224 kts | 190° |
| 2026-05-04 13:17 | 50.25841 | 30.89022 | 3269 ft | 233 kts | 190° |
| 2026-05-04 13:18 | 50.24191 | 30.88546 | 3777 ft | 249 kts | 190° |
| 2026-05-04 13:18 | 50.22436 | 30.88050 | 4285 ft | 261 kts | 190° |
| 2026-05-04 13:18 | 50.20652 | 30.87552 | 4821 ft | 267 kts | 190° |
| 2026-05-04 13:18 | 50.18816 | 30.87044 | 5594 ft | 272 kts | 190° |
| 2026-05-04 13:19 | 50.16936 | 30.86530 | 6339 ft | 278 kts | 191° |
| 2026-05-04 13:19 | 50.15659 | 30.86181 | 6772 ft | 283 kts | 190° |
| 2026-05-04 13:19 | 50.13034 | 30.85466 | 7766 ft | 289 kts | 190° |
| 2026-05-04 13:19 | 50.11063 | 30.84931 | 8532 ft | 293 kts | 190° |
| 2026-05-04 13:20 | 50.09043 | 30.84381 | 9288 ft | 297 kts | 189° |
| 2026-05-04 13:20 | 50.06991 | 30.83820 | 10015 ft | 302 kts | 189° |
| 2026-05-04 13:20 | 50.04843 | 30.83238 | 10259 ft | 324 kts | 189° |
| 2026-05-04 13:20 | 50.02563 | 30.82606 | 10470 ft | 343 kts | 190° |
| 2026-05-04 13:21 | 50.00172 | 30.81924 | 10968 ft | 352 kts | 190° |
| 2026-05-04 13:21 | 49.97750 | 30.81219 | 11581 ft | 357 kts | 190° |
| 2026-05-04 13:21 | 49.95298 | 30.80502 | 12239 ft | 361 kts | 190° |
| 2026-05-04 13:21 | 49.92815 | 30.79778 | 12899 ft | 365 kts | 190° |
| 2026-05-04 13:22 | 49.90300 | 30.79056 | 13555 ft | 369 kts | 190° |
| 2026-05-04 13:22 | 49.87763 | 30.78335 | 14146 ft | 373 kts | 189° |
| 2026-05-04 13:22 | 49.85198 | 30.77603 | 14744 ft | 376 kts | 189° |
| 2026-05-04 13:22 | 49.82612 | 30.76863 | 15337 ft | 379 kts | 189° |
| 2026-05-04 13:23 | 49.80012 | 30.76119 | 15924 ft | 382 kts | 189° |
| 2026-05-04 13:23 | 49.77372 | 30.75367 | 16333 ft | 391 kts | 189° |
| 2026-05-04 13:23 | 49.74640 | 30.74589 | 16466 ft | 406 kts | 189° |
| 2026-05-04 13:23 | 49.71817 | 30.73786 | 16594 ft | 419 kts | 189° |
| 2026-05-04 13:24 | 49.68912 | 30.72963 | 16749 ft | 429 kts | 189° |
| 2026-05-04 13:24 | 49.65974 | 30.72134 | 16868 ft | 440 kts | 189° |
| 2026-05-04 13:24 | 49.62894 | 30.71263 | 16998 ft | 450 kts | 189° |
| 2026-05-04 13:25 | 49.56745 | 30.68915 | 17433 ft | 466 kts | 203° |
| 2026-05-04 13:25 | 49.53931 | 30.66424 | 17805 ft | 469 kts | 217° |
| 2026-05-04 13:25 | 49.51465 | 30.63128 | 18191 ft | 471 kts | 223° |
| 2026-05-04 13:25 | 49.49052 | 30.59693 | 18564 ft | 473 kts | 223° |
| 2026-05-04 13:26 | 49.46627 | 30.56244 | 18917 ft | 475 kts | 223° |
| 2026-05-04 13:26 | 49.44198 | 30.52794 | 19277 ft | 477 kts | 223° |
| 2026-05-04 13:26 | 49.41750 | 30.49328 | 19630 ft | 479 kts | 223° |
| 2026-05-04 13:26 | 49.39293 | 30.45856 | 19999 ft | 481 kts | 223° |
| 2026-05-04 13:27 | 49.36827 | 30.42377 | 20354 ft | 483 kts | 223° |
| 2026-05-04 13:27 | 49.34345 | 30.38882 | 20698 ft | 485 kts | 223° |
| 2026-05-04 13:27 | 49.31859 | 30.35386 | 21013 ft | 486 kts | 223° |
| 2026-05-04 13:27 | 49.29361 | 30.31874 | 21317 ft | 488 kts | 223° |
| 2026-05-04 13:28 | 49.26853 | 30.28351 | 21599 ft | 489 kts | 223° |
| 2026-05-04 13:28 | 49.24337 | 30.24820 | 21879 ft | 491 kts | 223° |
| 2026-05-04 13:28 | 49.22667 | 30.22478 | 22063 ft | 492 kts | 223° |
| 2026-05-04 13:28 | 49.19312 | 30.17786 | 22375 ft | 494 kts | 222° |
| 2026-05-04 13:29 | 49.16768 | 30.14248 | 22590 ft | 495 kts | 222° |
| 2026-05-04 13:29 | 49.15078 | 30.11899 | 22744 ft | 496 kts | 222° |
| 2026-05-04 13:29 | 49.11664 | 30.07152 | 23011 ft | 497 kts | 222° |
| 2026-05-04 13:29 | 49.09108 | 30.03602 | 23272 ft | 497 kts | 222° |
| 2026-05-04 13:30 | 49.07416 | 30.01252 | 23442 ft | 496 kts | 222° |
| 2026-05-04 13:30 | 49.04860 | 29.97705 | 23708 ft | 496 kts | 222° |
| 2026-05-04 13:30 | 49.02317 | 29.94180 | 23939 ft | 495 kts | 222° |
| 2026-05-04 13:30 | 48.99764 | 29.90651 | 24174 ft | 495 kts | 222° |
| 2026-05-04 13:31 | 48.97211 | 29.87134 | 24409 ft | 494 kts | 222° |
| 2026-05-04 13:31 | 48.94664 | 29.83632 | 24644 ft | 493 kts | 222° |
| 2026-05-04 13:31 | 48.92119 | 29.80139 | 24882 ft | 492 kts | 222° |
| 2026-05-04 13:31 | 48.89577 | 29.76649 | 25109 ft | 491 kts | 222° |
| 2026-05-04 13:32 | 48.87046 | 29.73172 | 25361 ft | 490 kts | 222° |
| 2026-05-04 13:32 | 48.84514 | 29.69693 | 25608 ft | 490 kts | 222° |
| 2026-05-04 13:32 | 48.81992 | 29.66231 | 25854 ft | 489 kts | 222° |
| 2026-05-04 13:32 | 48.79471 | 29.62780 | 26105 ft | 488 kts | 222° |
| 2026-05-04 13:33 | 48.76950 | 29.59342 | 26356 ft | 487 kts | 222° |
| 2026-05-04 13:33 | 48.74430 | 29.55918 | 26615 ft | 486 kts | 222° |
| 2026-05-04 13:33 | 48.71911 | 29.52501 | 26871 ft | 485 kts | 222° |
| 2026-05-04 13:33 | 48.69399 | 29.49091 | 27127 ft | 484 kts | 222° |
| 2026-05-04 13:34 | 48.66897 | 29.45692 | 27392 ft | 484 kts | 222° |
| 2026-05-04 13:34 | 48.64427 | 29.42342 | 27653 ft | 483 kts | 222° |
| 2026-05-04 13:34 | 48.61924 | 29.38955 | 27919 ft | 482 kts | 222° |
| 2026-05-04 13:34 | 48.59424 | 29.35583 | 28180 ft | 481 kts | 222° |
| 2026-05-04 13:35 | 48.56924 | 29.32224 | 28462 ft | 480 kts | 222° |
| 2026-05-04 13:35 | 48.51942 | 29.25529 | 29013 ft | 478 kts | 222° |
| 2026-05-04 13:35 | 48.49463 | 29.22193 | 29295 ft | 477 kts | 222° |
| 2026-05-04 13:36 | 48.46987 | 29.18862 | 29572 ft | 476 kts | 222° |
| 2026-05-04 13:36 | 48.44517 | 29.15547 | 29867 ft | 475 kts | 222° |
| 2026-05-04 13:36 | 48.42051 | 29.12246 | 30142 ft | 474 kts | 221° |
| 2026-05-04 13:36 | 48.39585 | 29.08961 | 30384 ft | 473 kts | 221° |
| 2026-05-04 13:37 | 48.37114 | 29.05672 | 30621 ft | 473 kts | 221° |
| 2026-05-04 13:37 | 48.34658 | 29.02399 | 30873 ft | 472 kts | 221° |
| 2026-05-04 13:37 | 48.32234 | 28.99169 | 31124 ft | 472 kts | 221° |
| 2026-05-04 13:37 | 48.29779 | 28.95903 | 31373 ft | 471 kts | 221° |
| 2026-05-04 13:38 | 48.27324 | 28.92646 | 31628 ft | 471 kts | 221° |
| 2026-05-04 13:38 | 48.24864 | 28.89385 | 31792 ft | 473 kts | 221° |
| 2026-05-04 13:38 | 48.22393 | 28.86111 | 31924 ft | 475 kts | 221° |
| 2026-05-04 13:38 | 48.19907 | 28.82820 | 32046 ft | 477 kts | 221° |
| 2026-05-04 13:39 | 48.17415 | 28.79524 | 32183 ft | 478 kts | 221° |
| 2026-05-04 13:39 | 48.14913 | 28.76224 | 32314 ft | 480 kts | 221° |
| 2026-05-04 13:39 | 48.12333 | 28.73051 | 32471 ft | 480 kts | 215° |
| 2026-05-04 13:39 | 48.09499 | 28.70422 | 32735 ft | 478 kts | 210° |
| 2026-05-04 13:40 | 48.06628 | 28.67934 | 33004 ft | 476 kts | 210° |
| 2026-05-04 13:40 | 48.03768 | 28.65452 | 33273 ft | 475 kts | 210° |
| 2026-05-04 13:40 | 48.00916 | 28.62974 | 33548 ft | 473 kts | 210° |
| 2026-05-04 13:40 | 47.98074 | 28.60502 | 33823 ft | 472 kts | 210° |
| 2026-05-04 13:41 | 47.95240 | 28.58038 | 34088 ft | 470 kts | 210° |
| 2026-05-04 13:41 | 47.92414 | 28.55585 | 34324 ft | 469 kts | 210° |
| 2026-05-04 13:41 | 47.89637 | 28.53175 | 34557 ft | 467 kts | 210° |
| 2026-05-04 13:42 | 47.84036 | 28.48326 | 35041 ft | 464 kts | 210° |
| 2026-05-04 13:42 | 47.81250 | 28.45923 | 35276 ft | 462 kts | 210° |
| 2026-05-04 13:42 | 47.78475 | 28.43533 | 35534 ft | 461 kts | 210° |
| 2026-05-04 13:42 | 47.75693 | 28.41142 | 35786 ft | 459 kts | 210° |
| 2026-05-04 13:43 | 47.72927 | 28.38769 | 35980 ft | 459 kts | 210° |
| 2026-05-04 13:43 | 47.70146 | 28.36387 | 36030 ft | 462 kts | 210° |
| 2026-05-04 13:43 | 47.64532 | 28.31578 | 36030 ft | 470 kts | 210° |
| 2026-05-04 13:44 | 47.58830 | 28.26708 | 36030 ft | 475 kts | 210° |
| 2026-05-04 13:44 | 47.54225 | 28.22778 | 36033 ft | 476 kts | 210° |
| 2026-05-04 13:45 | 47.48514 | 28.17918 | 36032 ft | 476 kts | 210° |
| 2026-05-04 13:45 | 47.42775 | 28.13051 | 36032 ft | 476 kts | 210° |
| 2026-05-04 13:46 | 47.37029 | 28.08191 | 36041 ft | 476 kts | 210° |
| 2026-05-04 13:46 | 47.31263 | 28.03330 | 36055 ft | 476 kts | 210° |
| 2026-05-04 13:47 | 47.25526 | 27.98513 | 36058 ft | 475 kts | 210° |
| 2026-05-04 13:47 | 47.19792 | 27.93693 | 36055 ft | 474 kts | 210° |
| 2026-05-04 13:48 | 47.14074 | 27.88893 | 36056 ft | 473 kts | 210° |
| 2026-05-04 13:48 | 47.08336 | 27.84162 | 36055 ft | 472 kts | 209° |
| 2026-05-04 13:49 | 47.02542 | 27.79768 | 36056 ft | 471 kts | 207° |
| 2026-05-04 13:49 | 46.96664 | 27.75491 | 36052 ft | 471 kts | 207° |
| 2026-05-04 13:50 | 46.90814 | 27.71189 | 36054 ft | 470 kts | 208° |
| 2026-05-04 13:50 | 46.87481 | 27.68701 | 36055 ft | 469 kts | 208° |
| 2026-05-04 13:51 | 46.81860 | 27.64495 | 36058 ft | 469 kts | 208° |
| 2026-05-04 13:51 | 46.76051 | 27.60161 | 36051 ft | 468 kts | 208° |
| 2026-05-04 13:52 | 46.67344 | 27.53716 | 36054 ft | 467 kts | 208° |
| 2026-05-04 13:53 | 46.61552 | 27.49446 | 36047 ft | 466 kts | 207° |
| 2026-05-04 13:53 | 46.55757 | 27.45183 | 36046 ft | 466 kts | 208° |
| 2026-05-04 13:54 | 46.47084 | 27.38821 | 36045 ft | 465 kts | 208° |
| 2026-05-04 13:55 | 46.38441 | 27.32496 | 36045 ft | 465 kts | 207° |
| 2026-05-04 13:55 | 46.29783 | 27.26196 | 36044 ft | 464 kts | 208° |
| 2026-05-04 13:56 | 46.24010 | 27.22006 | 36039 ft | 464 kts | 208° |
| 2026-05-04 13:57 | 46.15388 | 27.15753 | 36039 ft | 464 kts | 207° |
| 2026-05-04 13:58 | 46.03832 | 27.07413 | 36039 ft | 464 kts | 207° |
| 2026-05-04 13:58 | 45.95163 | 27.01195 | 36034 ft | 465 kts | 207° |
| 2026-05-04 13:59 | 45.89377 | 26.97047 | 36032 ft | 465 kts | 207° |
| 2026-05-04 14:00 | 45.80683 | 26.90824 | 36043 ft | 466 kts | 207° |
| 2026-05-04 14:00 | 45.71995 | 26.84644 | 36030 ft | 467 kts | 206° |
| 2026-05-04 14:01 | 45.66167 | 26.80517 | 36031 ft | 467 kts | 206° |
| 2026-05-04 14:02 | 45.57421 | 26.74323 | 36040 ft | 468 kts | 206° |
| 2026-05-04 14:02 | 45.51576 | 26.70200 | 36050 ft | 468 kts | 206° |
| 2026-05-04 14:03 | 45.45741 | 26.66098 | 36047 ft | 468 kts | 206° |
| 2026-05-04 14:03 | 45.39894 | 26.61993 | 36039 ft | 469 kts | 206° |
| 2026-05-04 14:04 | 45.31114 | 26.55846 | 36038 ft | 469 kts | 206° |
| 2026-05-04 14:04 | 45.25254 | 26.51755 | 36045 ft | 469 kts | 206° |
| 2026-05-04 14:05 | 45.16437 | 26.45611 | 36032 ft | 471 kts | 206° |
| 2026-05-04 14:06 | 45.10555 | 26.41521 | 36034 ft | 471 kts | 206° |
| 2026-05-04 14:06 | 45.04657 | 26.37447 | 36032 ft | 472 kts | 206° |
| 2026-05-04 14:07 | 44.98743 | 26.33363 | 36033 ft | 472 kts | 206° |
| 2026-05-04 14:07 | 44.92871 | 26.29315 | 36037 ft | 473 kts | 206° |
| 2026-05-04 14:08 | 44.86951 | 26.25233 | 36039 ft | 473 kts | 206° |
| 2026-05-04 14:08 | 44.81024 | 26.21174 | 36045 ft | 474 kts | 206° |
| 2026-05-04 14:09 | 44.72125 | 26.15093 | 36057 ft | 474 kts | 206° |
| 2026-05-04 14:10 | 44.63220 | 26.09016 | 36062 ft | 475 kts | 206° |
| 2026-05-04 14:10 | 44.57275 | 26.04966 | 36065 ft | 475 kts | 206° |
| 2026-05-04 14:11 | 44.51329 | 26.00936 | 36063 ft | 475 kts | 205° |
| 2026-05-04 14:11 | 44.42406 | 25.94902 | 36066 ft | 475 kts | 205° |
| 2026-05-04 14:12 | 44.36459 | 25.90883 | 36072 ft | 475 kts | 205° |
| 2026-05-04 14:13 | 44.27534 | 25.84879 | 36064 ft | 475 kts | 205° |
| 2026-05-04 14:13 | 44.21579 | 25.80886 | 36063 ft | 474 kts | 205° |
| 2026-05-04 14:14 | 44.15627 | 25.76903 | 36060 ft | 475 kts | 205° |
| 2026-05-04 14:14 | 44.06687 | 25.70949 | 36055 ft | 475 kts | 205° |
| 2026-05-04 14:15 | 43.94785 | 25.63035 | 36062 ft | 476 kts | 205° |
| 2026-05-04 14:16 | 43.85811 | 25.57088 | 36063 ft | 476 kts | 205° |
| 2026-05-04 14:17 | 43.76828 | 25.51156 | 36068 ft | 477 kts | 205° |
| 2026-05-04 14:18 | 43.68850 | 25.45920 | 36071 ft | 477 kts | 205° |
| 2026-05-04 14:19 | 43.56858 | 25.38085 | 36077 ft | 477 kts | 204° |
| 2026-05-04 14:19 | 43.50838 | 25.34211 | 36070 ft | 477 kts | 204° |
| 2026-05-04 14:20 | 43.44810 | 25.30336 | 36072 ft | 478 kts | 204° |
| 2026-05-04 14:20 | 43.38786 | 25.26466 | 36070 ft | 478 kts | 204° |
| 2026-05-04 14:21 | 43.29733 | 25.20675 | 36084 ft | 479 kts | 204° |
| 2026-05-04 14:21 | 43.23690 | 25.16819 | 36090 ft | 478 kts | 204° |
| 2026-05-04 14:22 | 43.17655 | 25.12966 | 36088 ft | 479 kts | 204° |
| 2026-05-04 14:22 | 43.11616 | 25.09123 | 36095 ft | 478 kts | 204° |
| 2026-05-04 14:23 | 43.02557 | 25.03392 | 36107 ft | 478 kts | 204° |
| 2026-05-04 14:24 | 42.96511 | 24.99572 | 36090 ft | 479 kts | 203° |
| 2026-05-04 14:24 | 42.90463 | 24.95755 | 36084 ft | 479 kts | 203° |
| 2026-05-04 14:25 | 42.84400 | 24.91944 | 36075 ft | 480 kts | 203° |
| 2026-05-04 14:25 | 42.75280 | 24.86209 | 36089 ft | 481 kts | 202° |
| 2026-05-04 14:26 | 42.69236 | 24.82426 | 36088 ft | 481 kts | 203° |
| 2026-05-04 14:26 | 42.63148 | 24.78623 | 36086 ft | 481 kts | 202° |
| 2026-05-04 14:27 | 42.57058 | 24.74820 | 36090 ft | 481 kts | 204° |
| 2026-05-04 14:27 | 42.51011 | 24.71056 | 36089 ft | 481 kts | 204° |
| 2026-05-04 14:28 | 42.44925 | 24.67273 | 36083 ft | 481 kts | 204° |
| 2026-05-04 14:28 | 42.38840 | 24.63509 | 36085 ft | 481 kts | 204° |
| 2026-05-04 14:29 | 42.26668 | 24.55996 | 36081 ft | 481 kts | 203° |
| 2026-05-04 14:30 | 42.20561 | 24.52243 | 36071 ft | 482 kts | 203° |
| 2026-05-04 14:31 | 42.11388 | 24.46605 | 36068 ft | 483 kts | 203° |
| 2026-05-04 14:32 | 41.99165 | 24.39133 | 36082 ft | 484 kts | 204° |
| 2026-05-04 14:32 | 41.93037 | 24.35396 | 36093 ft | 483 kts | 204° |
| 2026-05-04 14:33 | 41.86905 | 24.31675 | 36083 ft | 483 kts | 203° |
| 2026-05-04 14:33 | 41.80775 | 24.27951 | 36085 ft | 483 kts | 204° |
| 2026-05-04 14:34 | 41.74644 | 24.24238 | 36079 ft | 484 kts | 204° |
| 2026-05-04 14:34 | 41.68400 | 24.20892 | 36082 ft | 482 kts | 191° |
| 2026-05-04 14:35 | 41.61816 | 24.19221 | 36064 ft | 483 kts | 189° |
| 2026-05-04 14:35 | 41.55195 | 24.17618 | 36072 ft | 483 kts | 189° |
| 2026-05-04 14:36 | 41.48586 | 24.16003 | 36058 ft | 483 kts | 189° |
| 2026-05-04 14:36 | 41.42006 | 24.14394 | 36054 ft | 484 kts | 189° |
| 2026-05-04 14:37 | 41.35391 | 24.12786 | 36068 ft | 483 kts | 189° |
| 2026-05-04 14:37 | 41.28784 | 24.11176 | 36072 ft | 482 kts | 189° |
| 2026-05-04 14:38 | 41.22189 | 24.09585 | 36074 ft | 481 kts | 189° |
| 2026-05-04 14:38 | 41.15589 | 24.07987 | 36064 ft | 482 kts | 189° |
| 2026-05-04 14:39 | 41.08977 | 24.06383 | 36053 ft | 482 kts | 189° |
| 2026-05-04 14:39 | 41.02381 | 24.04786 | 36056 ft | 482 kts | 189° |
| 2026-05-04 14:40 | 40.92495 | 24.02410 | 36052 ft | 476 kts | 189° |
| 2026-05-04 14:40 | 40.86032 | 24.00863 | 36055 ft | 475 kts | 189° |
| 2026-05-04 14:41 | 40.79508 | 23.99303 | 36056 ft | 471 kts | 190° |
| 2026-05-04 14:41 | 40.73136 | 23.97783 | 35078 ft | 468 kts | 189° |
| 2026-05-04 14:42 | 40.66752 | 23.96258 | 33643 ft | 461 kts | 188° |
| 2026-05-04 14:42 | 40.63601 | 23.95502 | 32724 ft | 460 kts | 188° |
| 2026-05-04 14:42 | 40.60443 | 23.94747 | 31712 ft | 462 kts | 188° |
| 2026-05-04 14:43 | 40.57276 | 23.93995 | 31053 ft | 463 kts | 187° |
| 2026-05-04 14:43 | 40.54102 | 23.93245 | 30518 ft | 461 kts | 187° |
| 2026-05-04 14:43 | 40.50971 | 23.92504 | 29956 ft | 454 kts | 187° |
| 2026-05-04 14:43 | 40.47887 | 23.91772 | 29333 ft | 447 kts | 187° |
| 2026-05-04 14:44 | 40.44841 | 23.91049 | 28726 ft | 441 kts | 187° |
| 2026-05-04 14:44 | 40.41846 | 23.90336 | 28132 ft | 435 kts | 188° |
| 2026-05-04 14:44 | 40.38886 | 23.89633 | 27590 ft | 428 kts | 188° |
| 2026-05-04 14:44 | 40.35970 | 23.88943 | 27105 ft | 423 kts | 188° |
| 2026-05-04 14:45 | 40.33091 | 23.88265 | 26589 ft | 419 kts | 188° |
| 2026-05-04 14:45 | 40.30223 | 23.87592 | 26098 ft | 417 kts | 188° |
| 2026-05-04 14:45 | 40.27381 | 23.86927 | 25617 ft | 414 kts | 188° |
| 2026-05-04 14:45 | 40.24547 | 23.86264 | 25137 ft | 412 kts | 188° |
| 2026-05-04 14:46 | 40.21734 | 23.85605 | 24668 ft | 410 kts | 189° |
| 2026-05-04 14:46 | 40.18969 | 23.84957 | 24200 ft | 408 kts | 189° |
| 2026-05-04 14:46 | 40.16150 | 23.84295 | 23720 ft | 405 kts | 189° |
| 2026-05-04 14:46 | 40.13416 | 23.83655 | 23192 ft | 403 kts | 189° |
| 2026-05-04 14:47 | 40.10664 | 23.83010 | 22708 ft | 401 kts | 189° |
| 2026-05-04 14:47 | 40.07917 | 23.82363 | 22241 ft | 399 kts | 189° |
| 2026-05-04 14:47 | 40.05191 | 23.81724 | 21745 ft | 397 kts | 189° |
| 2026-05-04 14:47 | 40.02480 | 23.81090 | 21258 ft | 395 kts | 189° |
| 2026-05-04 14:48 | 39.99784 | 23.80458 | 20769 ft | 393 kts | 189° |
| 2026-05-04 14:48 | 39.97101 | 23.79831 | 20280 ft | 391 kts | 189° |
| 2026-05-04 14:48 | 39.94427 | 23.79206 | 19780 ft | 389 kts | 189° |
| 2026-05-04 14:48 | 39.91776 | 23.78588 | 19294 ft | 387 kts | 189° |
| 2026-05-04 14:49 | 39.89132 | 23.77973 | 18813 ft | 385 kts | 190° |
| 2026-05-04 14:49 | 39.86497 | 23.77360 | 18325 ft | 384 kts | 189° |
| 2026-05-04 14:49 | 39.83868 | 23.76749 | 17861 ft | 384 kts | 189° |
| 2026-05-04 14:49 | 39.81247 | 23.76139 | 17326 ft | 381 kts | 189° |
| 2026-05-04 14:50 | 39.78648 | 23.75533 | 16868 ft | 379 kts | 189° |
| 2026-05-04 14:50 | 39.76063 | 23.74927 | 16394 ft | 376 kts | 189° |
| 2026-05-04 14:50 | 39.73494 | 23.74330 | 15943 ft | 372 kts | 189° |
| 2026-05-04 14:50 | 39.70958 | 23.73745 | 15497 ft | 370 kts | 189° |
| 2026-05-04 14:51 | 39.68352 | 23.73149 | 15018 ft | 386 kts | 189° |
| 2026-05-04 14:51 | 39.65680 | 23.72535 | 14540 ft | 400 kts | 189° |
| 2026-05-04 14:51 | 39.62899 | 23.71895 | 14031 ft | 409 kts | 189° |
| 2026-05-04 14:51 | 39.60093 | 23.71245 | 13482 ft | 409 kts | 189° |
| 2026-05-04 14:52 | 39.57334 | 23.70606 | 12965 ft | 406 kts | 189° |
| 2026-05-04 14:52 | 39.54555 | 23.69966 | 12444 ft | 396 kts | 189° |
| 2026-05-04 14:52 | 39.51923 | 23.69359 | 11946 ft | 382 kts | 189° |
| 2026-05-04 14:52 | 39.49348 | 23.68763 | 11393 ft | 371 kts | 190° |
| 2026-05-04 14:53 | 39.46842 | 23.68184 | 10840 ft | 359 kts | 190° |
| 2026-05-04 14:53 | 39.44447 | 23.67631 | 10381 ft | 339 kts | 190° |
| 2026-05-04 14:53 | 39.42217 | 23.67117 | 10130 ft | 313 kts | 190° |
| 2026-05-04 14:53 | 39.40062 | 23.66622 | 9634 ft | 315 kts | 190° |
| 2026-05-04 14:54 | 39.37932 | 23.66134 | 9220 ft | 310 kts | 190° |
| 2026-05-04 14:54 | 39.35842 | 23.65657 | 8848 ft | 301 kts | 190° |
| 2026-05-04 14:54 | 39.33785 | 23.65188 | 8468 ft | 299 kts | 190° |
| 2026-05-04 14:54 | 39.31745 | 23.64722 | 8082 ft | 297 kts | 190° |
| 2026-05-04 14:55 | 39.29734 | 23.64263 | 7708 ft | 288 kts | 190° |
| 2026-05-04 14:55 | 39.27796 | 23.63820 | 7344 ft | 277 kts | 191° |
| 2026-05-04 14:55 | 39.25928 | 23.63392 | 6971 ft | 268 kts | 191° |
| 2026-05-04 14:55 | 39.24118 | 23.62977 | 6596 ft | 261 kts | 191° |
| 2026-05-04 14:56 | 39.22341 | 23.62572 | 6219 ft | 258 kts | 191° |
| 2026-05-04 14:56 | 39.20578 | 23.62174 | 5833 ft | 256 kts | 191° |
| 2026-05-04 14:56 | 39.18823 | 23.61776 | 5452 ft | 255 kts | 194° |
| 2026-05-04 14:56 | 39.17172 | 23.61044 | 5074 ft | 248 kts | 211° |
| 2026-05-04 14:57 | 39.15642 | 23.60027 | 4691 ft | 247 kts | 211° |
| 2026-05-04 14:57 | 39.14126 | 23.59028 | 4308 ft | 248 kts | 211° |
| 2026-05-04 14:57 | 39.12584 | 23.58014 | 3923 ft | 249 kts | 211° |
| 2026-05-04 14:57 | 39.11035 | 23.56999 | 3545 ft | 250 kts | 211° |
| 2026-05-04 14:58 | 39.09497 | 23.55996 | 3212 ft | 244 kts | 210° |
| 2026-05-04 14:58 | 39.08016 | 23.55034 | 2954 ft | 233 kts | 210° |
| 2026-05-04 14:58 | 39.06616 | 23.54127 | 2723 ft | 218 kts | 210° |
| 2026-05-04 14:58 | 39.05718 | 23.53543 | 2541 ft | 211 kts | 210° |
| 2026-05-04 14:59 | 39.04048 | 23.52456 | 2214 ft | 194 kts | 210° |
| 2026-05-04 14:59 | 39.02901 | 23.51664 | 2057 ft | 175 kts | 218° |
| 2026-05-04 14:59 | 39.01975 | 23.49325 | 2004 ft | 138 kts | 273° |
| 2026-05-04 15:00 | 39.02171 | 23.48156 | 2002 ft | 132 kts | 296° |
| 2026-05-04 15:00 | 39.02705 | 23.47211 | 2004 ft | 130 kts | 319° |
| 2026-05-04 15:00 | 39.03476 | 23.46618 | 2006 ft | 130 kts | 340° |
| 2026-05-04 15:01 | 39.05280 | 23.46703 | 1870 ft | 134 kts | 10° |
| 2026-05-04 15:01 | 39.06188 | 23.46967 | 1741 ft | 134 kts | 9° |
| 2026-05-04 15:01 | 39.07109 | 23.47044 | 1673 ft | 132 kts | 357° |
| 2026-05-04 15:01 | 39.08026 | 23.47040 | 1627 ft | 132 kts | 358° |
| 2026-05-04 15:02 | 39.08640 | 23.47044 | 1570 ft | 133 kts | 359° |
| 2026-05-04 15:02 | 39.09564 | 23.47077 | 1482 ft | 133 kts | 2° |
| 2026-05-04 15:02 | 39.10481 | 23.47281 | 1419 ft | 134 kts | 11° |
| 2026-05-04 15:02 | 39.11381 | 23.47609 | 1303 ft | 133 kts | 13° |
| 2026-05-04 15:03 | 39.12267 | 23.47971 | 1224 ft | 134 kts | 15° |
| 2026-05-04 15:03 | 39.13133 | 23.48392 | 1098 ft | 133 kts | 19° |
| 2026-05-04 15:03 | 39.14011 | 23.48762 | 891 ft | 134 kts | 12° |
| 2026-05-04 15:03 | 39.14903 | 23.49114 | 638 ft | 134 kts | 17° |
| 2026-05-04 15:04 | 39.15801 | 23.49505 | 323 ft | 137 kts | 22° |
| 2026-05-04 15:04 | 39.16685 | 23.49907 | 107 ft | 134 kts | 18° |
| 2026-05-04 15:04 | 39.17525 | 23.50275 | 35 ft | 103 kts | 18° |
| 2026-05-04 15:04 | 39.17916 | 23.50448 | 40 ft | 22 kts | 14° |
| 2026-05-04 15:05 | 39.17955 | 23.50470 | 42 ft | 2 kts | 107° |
| 2026-05-04 15:05 | 39.17947 | 23.50467 | 41 ft | 1 kts | 194° |
| 2026-05-04 15:05 | 39.17933 | 23.50442 | 43 ft | 5 kts | 237° |
| 2026-05-04 15:05 | 39.17923 | 23.50394 | 42 ft | 6 kts | 258° |
| 2026-05-04 15:06 | 39.17916 | 23.50354 | 42 ft | 0 kts | 255° |
| 2026-05-04 15:07 | 39.17911 | 23.50341 | 43 ft | 2 kts | 240° |
| 2026-05-04 15:07 | 39.17897 | 23.50300 | 44 ft | 5 kts | 276° |
| 2026-05-04 15:07 | 39.17902 | 23.50283 | 46 ft | 3 kts | 288° |
| 2026-05-04 15:07 | 39.17910 | 23.50253 | 47 ft | 0 kts | 288° |
| 2026-05-04 15:08 | 39.17915 | 23.50234 | 52 ft | 0 kts | 289° |